createdAt,value
2018-11-28T00:00:21.077Z,23.87
2018-11-28T00:02:50.098Z,23.37
2018-11-28T00:05:18.742Z,24.30
2018-11-28T00:07:47.495Z,21.10
2018-11-28T00:10:16.000Z,23.03
2018-11-28T00:12:44.405Z,26.40
2018-11-28T00:15:13.895Z,25.30
2018-11-28T00:17:42.332Z,23.50
2018-11-28T00:20:17.089Z,23.57
2018-11-28T00:22:45.900Z,24.67
2018-11-28T00:25:15.148Z,24.80
2018-11-28T00:27:43.738Z,23.20
2018-11-28T00:30:21.773Z,24.03
2018-11-28T00:32:50.253Z,24.30
2018-11-28T00:35:19.619Z,24.07
2018-11-28T00:37:48.117Z,21.20
2018-11-28T00:40:18.099Z,24.27
2018-11-28T00:42:46.577Z,27.10
2018-11-28T00:45:16.233Z,27.73
2018-11-28T00:47:44.712Z,28.63
2018-11-28T00:50:14.435Z,27.80
2018-11-28T00:52:42.861Z,28.45
2018-11-28T00:55:12.403Z,28.30
2018-11-28T00:57:41.130Z,26.85
2018-11-28T01:00:12.179Z,27.42
2018-11-28T01:02:40.719Z,27.00
2018-11-28T01:05:10.451Z,27.90
2018-11-28T01:07:38.952Z,28.77
2018-11-28T01:10:11.619Z,27.42
2018-11-28T01:17:36.018Z,23.73
2018-11-28T01:20:05.833Z,22.33
2018-11-28T01:22:34.295Z,21.73
2018-11-28T01:25:02.707Z,23.87
2018-11-28T01:27:31.194Z,22.97
2018-11-28T01:29:59.567Z,22.37
2018-11-28T01:32:27.975Z,22.07
2018-11-28T01:34:56.349Z,21.27
2018-11-28T01:37:24.788Z,22.50
2018-11-28T01:39:53.172Z,22.40
2018-11-28T01:42:21.566Z,21.23
2018-11-28T01:44:50.366Z,21.10
2018-11-28T01:47:18.903Z,21.50
2018-11-28T01:49:47.878Z,20.57
2018-11-28T01:52:16.324Z,19.60
2018-11-28T01:54:44.800Z,21.13
2018-11-28T01:57:13.205Z,20.93
2018-11-28T01:59:41.650Z,19.27
2018-11-28T02:02:10.875Z,18.80
2018-11-28T02:04:39.521Z,19.37
2018-11-28T02:07:08.475Z,17.80
2018-11-28T02:09:37.015Z,21.00
2018-11-28T02:12:05.707Z,20.00
2018-11-28T02:14:34.168Z,20.53
2018-11-28T02:17:02.604Z,20.30
2018-11-28T02:19:30.984Z,18.70
2018-11-28T02:21:59.372Z,20.00
2018-11-28T02:24:28.122Z,18.87
2018-11-28T02:27:03.604Z,19.23
2018-11-28T02:29:32.101Z,21.90
2018-11-28T02:32:00.603Z,23.07
2018-11-28T02:34:29.276Z,20.90
2018-11-28T02:36:58.056Z,18.00
2018-11-28T02:39:26.649Z,18.43
2018-11-28T02:41:55.006Z,18.03
2018-11-28T02:44:23.704Z,18.67
2018-11-28T02:46:58.724Z,18.50
2018-11-28T02:49:27.488Z,18.13
2018-11-28T02:51:56.425Z,18.20
2018-11-28T02:54:25.100Z,19.33
2018-11-28T02:56:53.585Z,16.80
2018-11-28T02:59:22.062Z,17.30
2018-11-28T03:01:50.578Z,18.07
2018-11-28T03:04:19.416Z,17.20
2018-11-28T03:06:47.803Z,18.30
2018-11-28T03:09:16.378Z,18.87
2018-11-28T03:11:44.821Z,19.87
2018-11-28T03:14:13.760Z,19.87
2018-11-28T03:16:42.270Z,19.83
2018-11-28T03:19:10.752Z,20.40
2018-11-28T03:21:39.184Z,18.97
2018-11-28T03:24:07.719Z,20.97
2018-11-28T03:26:36.269Z,19.93
2018-11-28T03:29:04.855Z,19.70
2018-11-28T03:31:33.562Z,21.60
2018-11-28T03:34:02.027Z,20.33
2018-11-28T03:36:30.676Z,18.50
2018-11-28T03:38:59.453Z,20.83
2018-11-28T03:41:28.038Z,22.35
2018-11-28T03:43:56.465Z,21.40
2018-11-28T03:46:25.072Z,19.77
2018-11-28T03:48:53.621Z,20.60
2018-11-28T03:51:22.295Z,20.43
2018-11-28T03:53:50.692Z,19.90
2018-11-28T03:56:19.078Z,22.07
2018-11-28T03:58:47.468Z,20.23
2018-11-28T04:01:16.048Z,20.13
2018-11-28T04:03:44.535Z,22.00
2018-11-28T04:06:12.904Z,21.47
2018-11-28T04:08:41.653Z,21.93
2018-11-28T04:11:10.253Z,20.37
2018-11-28T04:13:38.906Z,20.60
2018-11-28T04:16:07.389Z,20.73
2018-11-28T04:18:36.238Z,20.77
2018-11-28T04:21:05.237Z,20.20
2018-11-28T04:23:34.031Z,22.00
2018-11-28T04:26:02.479Z,19.33
2018-11-28T04:28:31.254Z,20.00
2018-11-28T04:30:59.740Z,22.10
2018-11-28T04:33:28.231Z,20.63
2018-11-28T04:35:56.844Z,18.67
2018-11-28T04:38:25.486Z,22.40
2018-11-28T04:40:54.157Z,21.30
2018-11-28T04:43:23.041Z,17.83
2018-11-28T04:45:51.445Z,19.43
2018-11-28T04:48:19.816Z,18.77
2018-11-28T04:50:48.272Z,19.37
2018-11-28T04:53:17.009Z,19.70
2018-11-28T04:55:45.897Z,19.00
2018-11-28T04:58:14.321Z,20.10
2018-11-28T05:00:42.961Z,21.00
2018-11-28T05:03:11.536Z,20.57
2018-11-28T05:05:40.243Z,20.63
2018-11-28T05:08:08.624Z,20.00
2018-11-28T05:10:37.228Z,20.03
2018-11-28T05:13:05.664Z,18.10
2018-11-28T05:15:34.336Z,18.57
2018-11-28T05:18:03.177Z,19.23
2018-11-28T05:20:33.787Z,19.40
2018-11-28T05:23:02.916Z,20.20
2018-11-28T05:25:32.152Z,19.30
2018-11-28T05:28:00.798Z,19.23
2018-11-28T05:30:30.408Z,20.57
2018-11-28T05:32:58.935Z,18.70
2018-11-28T05:35:32.034Z,18.87
2018-11-28T05:38:01.018Z,20.70
2018-11-28T05:40:29.492Z,19.40
2018-11-28T05:42:57.921Z,20.07
2018-11-28T05:45:26.312Z,19.17
2018-11-28T05:47:54.779Z,20.07
2018-11-28T05:50:23.281Z,21.23
2018-11-28T05:52:51.922Z,21.13
2018-11-28T05:55:22.463Z,21.63
2018-11-28T05:57:50.896Z,24.50
2018-11-28T06:00:25.712Z,22.30
2018-11-28T06:02:54.189Z,22.53
2018-11-28T06:05:22.597Z,21.27
2018-11-28T06:07:51.005Z,21.13
2018-11-28T06:10:19.375Z,20.60
2018-11-28T06:12:47.809Z,21.43
2018-11-28T06:15:16.264Z,20.80
2018-11-28T06:17:44.635Z,22.30
2018-11-28T06:20:14.882Z,21.70
2018-11-28T06:22:43.348Z,21.73
2018-11-28T06:25:16.093Z,20.83
2018-11-28T06:27:41.186Z,21.73
2018-11-28T06:30:11.169Z,19.73
2018-11-28T06:32:39.684Z,19.57
2018-11-28T06:35:09.244Z,21.40
2018-11-28T06:37:37.692Z,20.13
2018-11-28T06:40:10.616Z,22.77
2018-11-28T06:42:39.337Z,21.23
2018-11-28T06:45:09.473Z,24.50
2018-11-28T06:47:37.848Z,21.63
2018-11-28T06:50:15.924Z,22.73
2018-11-28T06:52:45.516Z,23.97
2018-11-28T06:55:15.326Z,24.30
2018-11-28T06:57:43.746Z,21.40
2018-11-28T07:00:15.290Z,23.13
2018-11-28T07:02:43.747Z,26.00
2018-11-28T07:05:12.835Z,26.90
2018-11-28T07:07:41.300Z,24.92
2018-11-28T07:10:14.870Z,25.52
2018-11-28T07:12:43.339Z,22.95
2018-11-28T07:15:14.917Z,23.67
2018-11-28T07:17:43.944Z,23.75
2018-11-28T07:20:16.293Z,23.80
2018-11-28T07:22:44.743Z,22.85
2018-11-28T07:25:17.385Z,23.42
2018-11-28T07:27:46.844Z,23.83
2018-11-28T07:30:20.277Z,22.90
2018-11-28T07:32:49.713Z,23.22
2018-11-28T07:35:18.144Z,22.25
2018-11-28T07:37:46.642Z,21.90
2018-11-28T07:40:17.255Z,21.90
2018-11-28T07:42:48.615Z,21.75
2018-11-28T07:45:17.016Z,23.60
2018-11-28T07:47:45.450Z,23.80
2018-11-28T07:50:13.952Z,23.70
2018-11-28T07:52:42.483Z,24.90
2018-11-28T07:55:11.634Z,23.80
2018-11-28T07:57:40.396Z,24.72
2018-11-28T08:00:11.820Z,25.65
2018-11-28T08:02:40.504Z,24.85
2018-11-28T08:05:10.059Z,26.82
2018-11-28T08:07:38.493Z,25.55
2018-11-28T08:10:09.229Z,26.87
2018-11-28T08:12:37.591Z,26.55
2018-11-28T08:15:07.484Z,25.55
2018-11-28T08:17:36.396Z,24.00
2018-11-28T08:20:04.755Z,25.20
2018-11-28T08:22:33.228Z,25.27
2018-11-28T08:25:01.637Z,25.20
2018-11-28T08:27:30.058Z,24.57
2018-11-28T08:29:58.592Z,24.00
2018-11-28T08:32:27.019Z,24.32
2018-11-28T08:34:55.520Z,24.50
2018-11-28T08:37:23.908Z,23.73
2018-11-28T08:39:52.417Z,24.60
2018-11-28T08:42:20.805Z,24.40
2018-11-28T08:44:49.225Z,25.12
2018-11-28T08:47:17.629Z,24.80
2018-11-28T08:49:46.048Z,22.05
2018-11-28T08:52:14.443Z,24.15
2018-11-28T08:54:42.909Z,23.25
2018-11-28T08:57:11.452Z,23.40
2018-11-28T08:59:40.018Z,21.50
2018-11-28T09:02:08.638Z,21.45
2018-11-28T09:04:37.048Z,21.30
2018-11-28T09:07:05.751Z,21.30
2018-11-28T09:09:34.227Z,22.42
2018-11-28T09:12:02.808Z,20.70
2018-11-28T09:14:31.244Z,21.45
2018-11-28T09:16:59.712Z,21.50
2018-11-28T09:19:28.253Z,21.90
2018-11-28T09:21:56.737Z,22.22
2018-11-28T09:24:25.137Z,21.55
2018-11-28T09:26:53.700Z,21.60
2018-11-28T09:29:22.132Z,20.90
2018-11-28T09:31:50.540Z,20.27
2018-11-28T09:34:18.941Z,21.23
2018-11-28T09:36:47.368Z,20.20
2018-11-28T09:39:15.897Z,20.37
2018-11-28T09:41:44.329Z,21.42
2018-11-28T09:44:12.712Z,21.12
2018-11-28T09:46:41.142Z,21.90
2018-11-28T09:49:09.586Z,21.73
2018-11-28T09:51:38.039Z,22.10
2018-11-28T09:54:06.900Z,22.52
2018-11-28T09:56:35.365Z,22.15
2018-11-28T09:59:03.752Z,21.35
2018-11-28T10:01:32.288Z,22.93
2018-11-28T10:04:00.807Z,23.33
2018-11-28T10:06:29.242Z,22.85
2018-11-28T10:08:57.650Z,22.87
2018-11-28T10:11:26.094Z,21.68
2018-11-28T10:13:54.453Z,23.20
2018-11-28T10:16:22.881Z,22.95
2018-11-28T10:18:51.456Z,22.20
2018-11-28T10:23:47.700Z,17.43
2018-11-28T10:26:16.146Z,19.67
2018-11-28T10:28:44.571Z,19.77
2018-11-28T10:31:12.968Z,19.60
2018-11-28T10:33:41.376Z,18.57
2018-11-28T10:36:09.772Z,17.37
2018-11-28T10:38:38.221Z,17.07
2018-11-28T10:41:07.814Z,19.10
2018-11-28T10:43:35.396Z,17.27
2018-11-28T10:46:03.904Z,16.57
2018-11-28T10:48:32.356Z,16.10
2018-11-28T10:51:00.773Z,16.50
2018-11-28T10:53:29.317Z,14.83
2018-11-28T10:55:57.767Z,17.63
2018-11-28T10:58:27.222Z,17.60
2018-11-28T11:01:00.188Z,16.13
2018-11-28T11:03:33.912Z,17.93
2018-11-28T11:06:04.720Z,16.93
2018-11-28T11:08:38.442Z,16.67
2018-11-28T11:11:12.297Z,16.67
2018-11-28T11:13:42.556Z,16.53
2018-11-28T11:16:10.993Z,17.80
2018-11-28T11:18:39.425Z,16.20
2018-11-28T11:21:08.889Z,17.40
2018-11-28T11:23:37.304Z,18.07
2018-11-28T11:26:05.733Z,17.53
2018-11-28T11:28:34.155Z,17.57
2018-11-28T11:31:02.655Z,16.50
2018-11-28T11:33:31.276Z,15.77
2018-11-28T11:35:59.697Z,15.87
2018-11-28T11:38:28.092Z,18.70
2018-11-28T11:40:56.484Z,18.47
2018-11-28T11:43:24.923Z,16.00
2018-11-28T11:45:53.441Z,18.50
2018-11-28T11:48:21.844Z,17.40
2018-11-28T11:50:50.298Z,17.50
2018-11-28T11:53:18.794Z,16.63
2018-11-28T11:55:47.219Z,17.47
2018-11-28T11:58:15.634Z,17.40
2018-11-28T12:00:45.676Z,17.83
2018-11-28T12:03:14.752Z,18.60
2018-11-28T12:05:59.933Z,17.07
2018-11-28T12:08:29.330Z,17.33
2018-11-28T12:10:57.733Z,16.53
2018-11-28T12:13:26.534Z,16.37
2018-11-28T12:15:54.997Z,12.63
2018-11-28T12:18:23.444Z,14.97
2018-11-28T12:20:57.909Z,13.50
2018-11-28T12:23:26.511Z,14.30
2018-11-28T12:25:54.994Z,13.87
2018-11-28T12:28:23.453Z,15.00
2018-11-28T12:30:52.012Z,13.90
2018-11-28T12:33:20.531Z,14.13
2018-11-28T12:35:49.025Z,14.53
2018-11-28T12:38:17.460Z,13.27
2018-11-28T12:40:45.867Z,12.17
2018-11-28T12:43:14.560Z,11.50
2018-11-28T12:45:44.538Z,12.10
2018-11-28T12:48:13.484Z,13.10
2018-11-28T12:50:42.061Z,12.43
2018-11-28T12:53:11.781Z,10.40
2018-11-28T12:55:41.096Z,12.17
2018-11-28T12:58:24.310Z,11.70
2018-11-28T13:00:52.748Z,12.13
2018-11-28T13:03:21.212Z,12.53
2018-11-28T13:05:50.750Z,11.03
2018-11-28T13:08:19.281Z,11.07
2018-11-28T13:10:47.761Z,11.80
2018-11-28T13:13:16.177Z,11.07
2018-11-28T13:15:44.882Z,11.50
2018-11-28T13:18:13.314Z,10.27
2018-11-28T13:20:42.671Z,11.93
2018-11-28T13:23:13.710Z,10.07
2018-11-28T13:25:42.844Z,11.00
2018-11-28T13:28:11.261Z,12.37
2018-11-28T13:30:40.131Z,10.93
2018-11-28T13:33:08.906Z,10.93
2018-11-28T13:35:37.371Z,10.73
2018-11-28T13:38:10.971Z,11.20
2018-11-28T13:40:39.685Z,10.90
2018-11-28T13:43:08.076Z,11.30
2018-11-28T13:45:38.422Z,9.73
2018-11-28T13:48:06.837Z,9.70
2018-11-28T13:50:35.486Z,11.03
2018-11-28T13:53:06.433Z,10.40
2018-11-28T13:55:38.853Z,11.10
2018-11-28T13:58:06.117Z,10.43
2018-11-28T14:00:34.669Z,9.50
2018-11-28T14:03:03.083Z,11.40
2018-11-28T14:05:31.592Z,10.10
2018-11-28T14:08:00.049Z,10.07
2018-11-28T14:10:28.531Z,11.70
2018-11-28T14:12:56.986Z,11.03
2018-11-28T14:40:14.269Z,11.95
2018-11-28T14:42:43.086Z,12.37
2018-11-28T14:45:13.693Z,12.55
2018-11-28T14:47:42.861Z,12.20
2018-11-28T14:50:15.491Z,11.33
2018-11-28T14:52:44.164Z,12.73
2018-11-28T14:55:14.840Z,12.90
2018-11-28T14:57:43.397Z,12.50
2018-11-28T15:00:18.525Z,12.83
2018-11-28T15:02:48.443Z,12.73
2018-11-28T15:05:19.913Z,12.90
2018-11-28T15:07:49.405Z,12.03
2018-11-28T15:10:18.269Z,12.90
2018-11-28T15:12:46.702Z,13.10
2018-11-28T15:15:15.278Z,12.95
2018-11-28T15:17:43.802Z,13.48
2018-11-28T15:20:12.330Z,12.88
2018-11-28T15:22:40.756Z,12.60
2018-11-28T15:25:10.065Z,13.10
2018-11-28T15:27:39.298Z,13.13
2018-11-28T15:30:09.020Z,13.48
2018-11-28T15:32:37.524Z,13.60
2018-11-28T15:35:06.156Z,13.30
2018-11-28T15:37:34.692Z,13.65
2018-11-28T15:40:03.256Z,13.88
2018-11-28T15:42:31.672Z,13.63
2018-11-28T15:45:00.114Z,13.43
2018-11-28T15:47:29.156Z,14.05
2018-11-28T15:49:57.800Z,13.60
2018-11-28T15:52:26.455Z,14.38
2018-11-28T15:54:54.887Z,15.13
2018-11-28T15:57:23.441Z,14.10
2018-11-28T15:59:51.868Z,14.80
2018-11-28T16:02:20.302Z,14.60
2018-11-28T16:04:48.869Z,14.78
2018-11-28T16:07:17.457Z,14.75
2018-11-28T16:09:51.168Z,14.10
2018-11-28T16:12:19.667Z,16.20
2018-11-28T16:14:48.098Z,15.20
2018-11-28T16:17:16.614Z,16.25
2018-11-28T16:19:45.058Z,16.30
2018-11-28T16:22:13.539Z,18.05
2018-11-28T16:24:42.017Z,25.62
2018-11-28T16:27:10.520Z,18.17
2018-11-28T16:29:39.660Z,15.40
2018-11-28T16:32:08.108Z,15.38
2018-11-28T16:34:36.594Z,16.00
2018-11-28T16:37:05.149Z,15.03
2018-11-28T16:39:33.733Z,15.65
2018-11-28T16:42:02.284Z,15.48
2018-11-28T16:44:30.779Z,15.75
2018-11-28T16:46:59.257Z,14.58
2018-11-28T16:49:27.789Z,14.63
2018-11-28T16:51:56.245Z,14.73
2018-11-28T16:54:24.777Z,15.50
2018-11-28T16:56:53.234Z,15.08
2018-11-28T16:59:21.968Z,15.45
2018-11-28T17:01:50.369Z,14.83
2018-11-28T17:04:18.929Z,14.40
2018-11-28T17:06:47.460Z,16.90
2018-11-28T17:09:16.022Z,37.35
2018-11-28T17:11:44.599Z,33.58
2018-11-28T17:14:13.078Z,22.40
2018-11-28T17:16:41.622Z,17.42
2018-11-28T17:19:10.175Z,18.42
2018-11-28T17:21:38.599Z,17.75
2018-11-28T17:24:07.052Z,17.17
2018-11-28T17:26:35.570Z,17.77
2018-11-28T17:29:04.246Z,18.20
2018-11-28T18:18:26.277Z,13.80
2018-11-28T18:20:54.729Z,13.90
2018-11-28T18:23:23.180Z,13.93
2018-11-28T18:25:51.685Z,13.40
2018-11-28T18:28:20.207Z,15.43
2018-11-28T18:30:48.639Z,15.03
2018-11-28T18:33:17.096Z,14.63
2018-11-28T18:35:45.605Z,16.97
2018-11-28T18:38:14.418Z,14.87
2018-11-28T18:40:43.322Z,17.13
2018-11-28T18:43:12.451Z,15.40
2018-11-28T18:45:45.364Z,16.50
2018-11-28T18:48:14.349Z,17.03
2018-11-28T18:50:42.910Z,17.00
2018-11-28T18:53:11.553Z,16.07
2018-11-28T18:55:40.362Z,16.07
2018-11-28T18:58:10.256Z,16.67
2018-11-28T19:00:39.056Z,18.00
2018-11-28T19:03:08.181Z,19.20
2018-11-28T19:05:36.918Z,21.23
2018-11-28T19:08:06.100Z,20.27
2018-11-28T19:10:34.917Z,22.40
2018-11-28T19:13:03.639Z,21.70
2018-11-28T19:15:33.149Z,22.53
2018-11-28T19:18:02.406Z,22.93
2018-11-28T19:20:31.436Z,22.83
2018-11-28T19:23:00.408Z,24.13
2018-11-28T19:25:29.824Z,19.90
2018-11-28T19:27:58.653Z,18.60
2018-11-28T19:30:34.722Z,17.43
2018-11-28T19:33:03.887Z,16.00
2018-11-28T19:35:33.005Z,16.00
2018-11-28T19:38:02.205Z,25.33
2018-11-28T19:40:38.062Z,28.03
2018-11-28T19:43:07.205Z,23.70
2018-11-28T19:45:36.085Z,23.50
2018-11-28T19:48:04.872Z,19.73
2018-11-28T19:50:34.550Z,18.23
2018-11-28T19:53:02.988Z,20.10
2018-11-28T19:55:31.541Z,17.10
2018-11-28T19:58:00.150Z,15.70
2018-11-28T20:00:28.715Z,15.73
2018-11-28T20:02:57.561Z,15.70
2018-11-28T20:05:26.170Z,14.80
2018-11-28T20:07:55.097Z,13.67
2018-11-28T20:10:23.963Z,15.60
2018-11-28T20:12:53.053Z,16.13
2018-11-28T20:15:36.691Z,13.33
2018-11-28T20:18:05.642Z,13.70
2018-11-28T20:20:34.598Z,13.10
2018-11-28T20:23:03.148Z,13.67
2018-11-28T20:25:31.792Z,13.60
2018-11-28T20:28:00.762Z,14.40
2018-11-28T20:30:33.591Z,13.70
2018-11-28T20:33:02.190Z,14.63
2018-11-28T20:35:30.653Z,15.23
2018-11-28T20:37:59.217Z,15.63
2018-11-28T20:40:27.687Z,16.03
2018-11-28T20:42:56.700Z,17.40
2018-11-28T20:45:25.384Z,16.33
2018-11-28T20:47:53.926Z,15.83
2018-11-28T20:50:27.411Z,16.67
2018-11-28T20:53:00.751Z,14.57
2018-11-28T20:55:29.240Z,17.87
2018-11-28T20:57:57.763Z,15.47
2018-11-28T21:00:26.476Z,15.43
2018-11-28T21:02:54.975Z,17.80
2018-11-28T21:05:23.632Z,16.40
2018-11-28T21:07:52.268Z,13.60
2018-11-28T21:10:26.383Z,14.07
2018-11-28T21:12:54.935Z,13.50
2018-11-28T21:15:23.820Z,14.20
2018-11-28T21:17:52.337Z,13.40
2018-11-28T21:20:22.276Z,14.17
2018-11-28T21:22:52.151Z,13.23
2018-11-28T21:25:21.202Z,15.10
2018-11-28T21:27:49.855Z,13.40
2018-11-28T21:30:19.604Z,15.00
2018-11-28T21:32:48.999Z,15.50
2018-11-28T21:35:23.784Z,15.60
2018-11-28T21:37:52.370Z,16.20
2018-11-28T21:40:21.030Z,17.03
2018-11-28T21:42:50.042Z,14.90
2018-11-28T21:45:20.723Z,14.00
2018-11-28T21:47:50.074Z,16.10
2018-11-28T21:50:19.713Z,14.93
2018-11-28T21:52:48.497Z,12.03
2018-11-28T21:55:20.090Z,14.87
2018-11-28T21:57:48.719Z,14.00
2018-11-28T22:00:19.182Z,14.20
2018-11-28T22:02:47.756Z,14.20
2018-11-28T22:05:16.831Z,14.67
2018-11-28T22:07:45.512Z,15.40
2018-11-28T22:27:31.461Z,15.17
2018-11-28T22:30:00.125Z,16.57
2018-11-28T22:32:28.700Z,18.23
2018-11-28T22:34:57.423Z,17.70
2018-11-28T22:37:25.899Z,18.12
2018-11-28T22:39:54.436Z,18.70
2018-11-28T22:42:23.412Z,19.00
2018-11-28T22:44:51.824Z,20.02
2018-11-28T22:47:20.356Z,18.98
2018-11-28T22:49:48.848Z,18.37
2018-11-28T22:52:17.263Z,16.90
2018-11-28T22:54:45.724Z,16.70
2018-11-28T22:57:14.127Z,14.70
2018-11-28T22:59:42.633Z,14.70
2018-11-28T23:02:51.900Z,14.73
2018-11-28T23:05:22.036Z,15.17
2018-11-28T23:07:51.175Z,14.80
2018-11-28T23:10:20.140Z,15.07
2018-11-28T23:12:49.130Z,14.10
2018-11-28T23:15:18.272Z,15.47
2018-11-28T23:17:47.308Z,14.37
2018-11-28T23:20:15.771Z,14.30
2018-11-28T23:22:44.457Z,14.53
2018-11-28T23:25:13.591Z,13.77
2018-11-28T23:27:42.464Z,15.30
2018-11-28T23:30:18.330Z,15.27
2018-11-28T23:32:48.150Z,15.73
2018-11-28T23:35:17.650Z,14.67
2018-11-28T23:37:47.551Z,13.40
2018-11-28T23:40:16.974Z,15.13
2018-11-28T23:42:46.229Z,14.53
2018-11-28T23:45:15.882Z,15.63
2018-11-28T23:47:44.568Z,15.23
2018-11-28T23:50:20.041Z,15.03
2018-11-28T23:52:49.507Z,13.80
2018-11-28T23:55:22.004Z,15.97
2018-11-28T23:57:50.993Z,14.27
